createdAt,value
2019-02-11T00:00:42.968Z,92.87
2019-02-11T00:03:12.268Z,92.88
2019-02-11T00:05:41.470Z,93.25
2019-02-11T00:08:10.774Z,93.39
2019-02-11T00:10:39.767Z,93.43
2019-02-11T00:13:10.669Z,93.24
2019-02-11T00:15:39.415Z,93.20
2019-02-11T00:18:08.036Z,93.36
2019-02-11T00:20:36.680Z,93.41
2019-02-11T00:23:05.302Z,93.45
2019-02-11T00:25:34.238Z,93.56
2019-02-11T00:28:02.859Z,93.47
2019-02-11T00:30:31.553Z,93.41
2019-02-11T00:33:00.245Z,93.58
2019-02-11T00:35:29.229Z,93.79
2019-02-11T00:37:58.590Z,93.86
2019-02-11T00:40:27.302Z,94.05
2019-02-11T00:42:56.576Z,94.22
2019-02-11T00:45:25.225Z,94.35
2019-02-11T00:47:54.474Z,94.52
2019-02-11T00:50:23.436Z,94.55
2019-02-11T00:52:52.346Z,94.51
2019-02-11T00:55:21.289Z,94.57
2019-02-11T00:57:50.525Z,94.58
2019-02-11T01:00:19.165Z,94.75
2019-02-11T01:02:51.203Z,94.84
2019-02-11T01:05:19.838Z,94.74
2019-02-11T01:07:48.484Z,94.71
2019-02-11T01:10:17.126Z,94.59
2019-02-11T01:12:46.046Z,94.25
2019-02-11T01:15:14.770Z,93.71
2019-02-11T01:17:43.402Z,93.57
2019-02-11T01:20:13.025Z,93.32
2019-02-11T01:22:41.942Z,93.04
2019-02-11T01:25:10.912Z,92.63
2019-02-11T01:27:39.903Z,92.56
2019-02-11T01:30:11.769Z,92.40
2019-02-11T01:32:40.769Z,92.19
2019-02-11T01:35:09.852Z,92.05
2019-02-11T01:37:39.192Z,91.97
2019-02-11T01:40:10.157Z,91.59
2019-02-11T01:42:39.189Z,91.49
2019-02-11T01:45:09.671Z,91.16
2019-02-11T01:47:38.643Z,90.86
2019-02-11T01:50:09.386Z,90.68
2019-02-11T01:52:38.054Z,90.50
2019-02-11T01:55:06.764Z,90.42
2019-02-11T01:57:35.445Z,90.42
2019-02-11T02:00:04.911Z,90.54
2019-02-11T02:02:33.596Z,90.47
2019-02-11T02:05:02.897Z,89.67
2019-02-11T02:07:31.890Z,89.67
2019-02-11T02:10:01.499Z,90.34
2019-02-11T02:12:30.100Z,90.19
2019-02-11T02:14:59.072Z,90.07
2019-02-11T02:17:28.376Z,89.68
2019-02-11T02:19:57.778Z,88.75
2019-02-11T02:22:26.666Z,88.70
2019-02-11T02:24:55.869Z,88.33
2019-02-11T02:27:24.786Z,88.19
2019-02-11T02:29:53.401Z,88.00
2019-02-11T02:32:22.335Z,87.92
2019-02-11T02:34:52.833Z,87.69
2019-02-11T02:37:21.860Z,87.55
2019-02-11T02:39:50.854Z,87.55
2019-02-11T02:42:20.155Z,87.79
2019-02-11T02:44:49.047Z,87.70
2019-02-11T02:47:18.239Z,87.23
2019-02-11T02:49:47.123Z,86.99
2019-02-11T02:52:15.934Z,86.82
2019-02-11T02:54:45.220Z,86.71
2019-02-11T02:57:14.434Z,86.86
2019-02-11T02:59:43.441Z,86.43
2019-02-11T03:02:12.092Z,86.57
2019-02-11T03:04:40.750Z,86.78
2019-02-11T03:07:09.998Z,86.85
2019-02-11T03:09:39.294Z,86.89
2019-02-11T03:12:08.310Z,87.31
2019-02-11T03:14:36.944Z,86.86
2019-02-11T03:17:05.577Z,86.84
2019-02-11T03:19:34.550Z,86.82
2019-02-11T03:22:03.443Z,86.81
2019-02-11T03:24:32.638Z,86.48
2019-02-11T03:27:01.841Z,86.37
2019-02-11T03:29:30.475Z,86.33
2019-02-11T03:32:00.105Z,86.72
2019-02-11T03:34:29.258Z,86.88
2019-02-11T03:36:58.226Z,87.05
2019-02-11T03:39:27.623Z,87.13
2019-02-11T03:41:56.617Z,87.04
2019-02-11T03:44:25.508Z,87.08
2019-02-11T03:46:54.133Z,87.09
2019-02-11T03:49:23.090Z,87.37
2019-02-11T03:51:51.814Z,87.29
2019-02-11T03:54:20.770Z,87.49
2019-02-11T03:56:50.067Z,87.70
2019-02-11T03:59:19.365Z,87.86
2019-02-11T04:01:48.563Z,87.79
2019-02-11T04:04:17.560Z,88.02
2019-02-11T04:06:46.513Z,88.02
2019-02-11T04:09:15.852Z,87.82
2019-02-11T04:11:44.829Z,87.69
2019-02-11T04:14:13.735Z,87.51
2019-02-11T04:16:43.443Z,87.20
2019-02-11T04:19:12.346Z,87.10
2019-02-11T04:21:41.006Z,87.11
2019-02-11T04:24:09.916Z,88.02
2019-02-11T04:26:39.221Z,88.46
2019-02-11T04:29:07.920Z,88.47
2019-02-11T04:31:37.302Z,88.48
2019-02-11T04:34:07.129Z,88.20
2019-02-11T04:36:36.428Z,87.84
2019-02-11T04:39:06.451Z,87.51
2019-02-11T04:41:35.889Z,87.00
2019-02-11T04:44:04.840Z,86.38
2019-02-11T04:46:33.502Z,86.12
2019-02-11T04:49:02.440Z,85.67
2019-02-11T04:51:33.598Z,85.00
2019-02-11T04:54:02.864Z,84.86
2019-02-11T04:56:31.746Z,84.12
2019-02-11T04:59:00.452Z,83.32
2019-02-11T05:01:29.127Z,82.18
2019-02-11T05:03:58.119Z,81.16
2019-02-11T05:06:27.413Z,80.10
2019-02-11T05:08:56.629Z,79.68
2019-02-11T05:11:25.615Z,78.60
2019-02-11T05:13:54.593Z,78.25
2019-02-11T05:16:23.265Z,77.63
2019-02-11T05:18:52.180Z,77.55
2019-02-11T05:21:21.071Z,77.62
2019-02-11T05:23:49.766Z,77.54
2019-02-11T05:26:19.062Z,77.50
2019-02-11T05:28:48.664Z,76.62
2019-02-11T05:31:17.314Z,76.74
2019-02-11T05:33:46.552Z,77.04
2019-02-11T05:36:15.547Z,76.88
2019-02-11T05:38:44.537Z,77.26
2019-02-11T05:41:13.531Z,77.30
2019-02-11T05:43:42.524Z,77.98
2019-02-11T05:46:11.723Z,78.28
2019-02-11T05:48:40.619Z,78.52
2019-02-11T05:51:10.188Z,78.92
2019-02-11T05:53:38.844Z,79.09
2019-02-11T05:56:07.581Z,79.13
2019-02-11T05:58:37.120Z,79.13
2019-02-11T06:01:06.098Z,79.26
2019-02-11T06:03:35.088Z,78.74
2019-02-11T06:06:03.757Z,78.05
2019-02-11T06:08:33.236Z,78.03
2019-02-11T06:11:02.493Z,77.93
2019-02-11T06:13:31.485Z,78.10
2019-02-11T06:16:00.466Z,78.45
2019-02-11T06:18:29.360Z,78.62
2019-02-11T06:20:58.261Z,77.77
2019-02-11T06:23:27.258Z,78.30
2019-02-11T06:25:56.750Z,77.35
2019-02-11T06:28:25.601Z,76.83
2019-02-11T06:30:54.228Z,76.50
2019-02-11T06:33:22.838Z,76.18
2019-02-11T06:35:51.802Z,76.20
2019-02-11T06:38:21.004Z,76.33
2019-02-11T06:40:49.900Z,76.26
2019-02-11T06:43:18.536Z,76.29
2019-02-11T06:45:48.054Z,76.02
2019-02-11T06:48:16.979Z,76.24
2019-02-11T06:50:45.589Z,76.63
2019-02-11T06:53:14.242Z,76.38
2019-02-11T06:55:43.579Z,76.41
2019-02-11T06:58:12.562Z,76.45
2019-02-11T07:00:41.219Z,77.13
2019-02-11T07:03:10.219Z,77.11
2019-02-11T07:05:39.207Z,77.17
2019-02-11T07:08:08.512Z,76.86
2019-02-11T07:10:37.600Z,76.93
2019-02-11T07:13:06.811Z,76.65
2019-02-11T07:15:35.461Z,76.30
2019-02-11T07:18:04.712Z,76.70
2019-02-11T07:20:33.303Z,76.58
2019-02-11T07:23:01.931Z,76.76
2019-02-11T07:25:30.601Z,76.41
2019-02-11T07:27:59.566Z,76.14
2019-02-11T07:30:28.536Z,76.54
2019-02-11T07:32:57.841Z,76.51
2019-02-11T07:35:26.840Z,76.51
2019-02-11T07:37:55.832Z,76.49
2019-02-11T07:40:27.111Z,76.31
2019-02-11T07:43:03.352Z,76.26
2019-02-11T07:45:38.028Z,76.61
2019-02-11T07:48:06.964Z,76.35
2019-02-11T07:50:36.159Z,76.36
2019-02-11T07:53:05.453Z,76.74
2019-02-11T07:55:34.752Z,76.71
2019-02-11T07:58:03.855Z,77.01
2019-02-11T08:00:32.848Z,76.88
2019-02-11T08:03:02.166Z,76.82
2019-02-11T08:05:31.456Z,76.72
2019-02-11T08:08:00.546Z,76.51
2019-02-11T08:10:29.200Z,76.82
2019-02-11T08:12:58.224Z,76.55
2019-02-11T08:15:27.217Z,76.89
2019-02-11T08:17:57.012Z,76.47
2019-02-11T08:20:26.962Z,76.89
2019-02-11T08:22:56.247Z,76.77
2019-02-11T08:25:25.241Z,76.61
2019-02-11T08:27:53.863Z,77.24
2019-02-11T08:30:22.918Z,77.69
2019-02-11T08:32:51.891Z,77.67
2019-02-11T08:35:21.216Z,78.42
2019-02-11T08:37:50.137Z,78.45
2019-02-11T08:40:18.884Z,78.93
2019-02-11T08:42:47.786Z,79.33
2019-02-11T08:45:16.469Z,79.80
2019-02-11T08:47:45.129Z,80.14
2019-02-11T08:50:14.153Z,80.33
2019-02-11T08:52:43.148Z,79.99
2019-02-11T08:55:12.138Z,79.58
2019-02-11T08:57:41.445Z,79.29
2019-02-11T09:00:10.636Z,79.08
2019-02-11T09:02:40.149Z,78.20
2019-02-11T09:05:09.458Z,77.44
2019-02-11T09:07:38.563Z,77.14
2019-02-11T09:10:07.666Z,77.88
2019-02-11T09:12:36.631Z,77.33
2019-02-11T09:15:06.771Z,77.22
2019-02-11T09:17:35.399Z,75.69
2019-02-11T09:20:04.941Z,75.56
2019-02-11T09:22:34.242Z,76.47
2019-02-11T09:25:02.894Z,76.75
2019-02-11T09:27:31.518Z,76.78
2019-02-11T09:30:00.850Z,76.94
2019-02-11T09:32:30.112Z,76.92
2019-02-11T09:34:59.400Z,76.38
2019-02-11T09:37:28.305Z,76.57
2019-02-11T09:39:57.507Z,77.01
2019-02-11T09:42:26.486Z,76.64
2019-02-11T09:44:55.495Z,76.76
2019-02-11T09:47:24.133Z,76.16
2019-02-11T09:50:11.789Z,76.18
2019-02-11T09:52:40.702Z,75.00
2019-02-11T09:55:14.741Z,75.65
2019-02-11T09:57:43.769Z,76.35
2019-02-11T10:00:12.804Z,76.60
2019-02-11T10:02:42.104Z,76.08
2019-02-11T10:05:11.202Z,75.57
2019-02-11T10:07:40.203Z,74.50
2019-02-11T10:10:09.608Z,74.29
2019-02-11T10:12:38.809Z,73.06
2019-02-11T10:15:09.446Z,72.01
2019-02-11T10:17:38.770Z,71.77
2019-02-11T10:20:08.854Z,71.49
2019-02-11T10:22:38.204Z,70.59
2019-02-11T10:25:10.643Z,71.48
2019-02-11T10:27:39.570Z,71.71
2019-02-11T10:30:10.577Z,72.38
2019-02-11T10:32:39.558Z,72.74
2019-02-11T10:35:08.737Z,73.50
2019-02-11T10:37:38.465Z,73.33
2019-02-11T10:40:08.689Z,73.22
2019-02-11T10:42:37.576Z,72.75
2019-02-11T10:45:07.495Z,72.85
2019-02-11T10:47:36.487Z,72.23
2019-02-11T10:50:05.624Z,72.05
2019-02-11T10:52:34.418Z,71.93
2019-02-11T10:55:03.368Z,72.13
2019-02-11T10:57:32.366Z,71.69
2019-02-11T11:00:01.668Z,71.76
2019-02-11T11:02:31.060Z,71.36
2019-02-11T11:05:00.470Z,71.60
2019-02-11T11:07:29.173Z,71.51
2019-02-11T11:09:58.145Z,70.91
2019-02-11T11:12:26.847Z,70.97
2019-02-11T11:14:55.827Z,71.24
2019-02-11T11:17:25.126Z,71.23
2019-02-11T11:19:54.219Z,70.54
2019-02-11T11:22:22.849Z,70.80
2019-02-11T11:24:51.800Z,70.87
2019-02-11T11:27:20.790Z,70.59
2019-02-11T11:29:49.787Z,70.50
2019-02-11T11:32:18.778Z,70.72
2019-02-11T11:34:47.428Z,69.89
2019-02-11T11:37:16.069Z,70.31
2019-02-11T11:39:45.354Z,69.88
2019-02-11T11:42:14.367Z,70.07
2019-02-11T11:44:43.644Z,69.79
2019-02-11T11:47:12.564Z,70.30
2019-02-11T11:49:41.477Z,70.93
2019-02-11T11:52:10.434Z,70.42
2019-02-11T11:54:39.049Z,70.46
2019-02-11T11:57:07.879Z,70.87
2019-02-11T11:59:36.534Z,70.72
2019-02-11T12:02:05.224Z,71.15
2019-02-11T12:04:34.185Z,70.96
2019-02-11T12:07:02.946Z,70.81
2019-02-11T12:09:31.757Z,71.78
2019-02-11T12:12:00.749Z,71.54
2019-02-11T12:14:29.739Z,71.65
2019-02-11T12:17:02.686Z,72.27
2019-02-11T12:19:28.744Z,71.54
2019-02-11T12:21:57.391Z,72.39
2019-02-11T12:24:26.314Z,71.84
2019-02-11T12:26:55.657Z,71.80
2019-02-11T12:29:24.715Z,72.19
2019-02-11T12:31:53.422Z,71.97
2019-02-11T12:34:22.714Z,71.00
2019-02-11T12:36:53.841Z,71.25
2019-02-11T12:39:22.469Z,71.07
2019-02-11T12:41:51.566Z,71.27
2019-02-11T12:44:20.537Z,71.53
2019-02-11T12:46:49.165Z,71.15
2019-02-11T12:49:18.102Z,71.71
2019-02-11T12:51:47.323Z,71.43
2019-02-11T12:54:15.916Z,71.97
2019-02-11T12:56:44.604Z,71.74
2019-02-11T12:59:13.315Z,70.91
2019-02-11T13:01:41.897Z,70.69
2019-02-11T13:04:10.947Z,70.09
2019-02-11T13:06:39.588Z,69.71
2019-02-11T13:09:08.602Z,70.70
2019-02-11T13:11:37.247Z,69.36
2019-02-11T13:14:05.898Z,68.35
2019-02-11T13:16:34.675Z,63.85
2019-02-11T13:19:03.697Z,63.85
2019-02-11T13:21:32.970Z,62.22
2019-02-11T13:24:01.702Z,62.09
2019-02-11T13:26:30.709Z,62.80
2019-02-11T13:29:00.203Z,61.43
2019-02-11T13:31:29.175Z,59.28
2019-02-11T13:33:57.798Z,58.64
2019-02-11T13:36:26.860Z,58.71
2019-02-11T13:38:55.534Z,58.26
2019-02-11T13:41:24.166Z,58.26
2019-02-11T13:43:52.798Z,56.93
2019-02-11T13:46:21.463Z,56.04
2019-02-11T13:48:51.449Z,56.29
2019-02-11T13:51:20.801Z,56.29
2019-02-11T13:53:49.872Z,56.60
2019-02-11T13:56:18.502Z,57.64
2019-02-11T13:58:51.989Z,56.72
2019-02-11T14:01:18.236Z,56.72
2019-02-11T14:03:47.314Z,56.03
2019-02-11T14:06:16.032Z,55.40
2019-02-11T14:08:44.978Z,55.40
2019-02-11T14:11:13.641Z,55.62
2019-02-11T14:14:00.445Z,54.05
2019-02-11T14:16:13.289Z,54.05
2019-02-11T14:18:42.300Z,54.87
2019-02-11T14:21:11.074Z,53.72
2019-02-11T14:23:40.029Z,53.72
2019-02-11T14:26:08.670Z,54.97
2019-02-11T14:28:37.339Z,54.93
2019-02-11T14:31:06.335Z,54.60
2019-02-11T14:33:35.757Z,54.60
2019-02-11T14:36:05.782Z,54.85
2019-02-11T14:38:34.650Z,54.85
2019-02-11T14:41:03.631Z,56.19
2019-02-11T14:43:32.634Z,56.19
2019-02-11T14:46:01.297Z,57.14
2019-02-11T14:48:30.185Z,56.98
2019-02-11T14:50:59.502Z,55.66
2019-02-11T14:53:28.416Z,55.66
2019-02-11T14:55:57.382Z,55.91
2019-02-11T14:58:26.020Z,55.91
2019-02-11T15:00:55.011Z,55.67
2019-02-11T15:03:23.660Z,55.78
2019-02-11T15:05:52.629Z,57.12
2019-02-11T15:08:21.642Z,57.12
2019-02-11T15:10:50.604Z,59.32
2019-02-11T15:13:19.554Z,59.32
2019-02-11T15:15:48.842Z,58.02
2019-02-11T15:18:17.819Z,58.02
2019-02-11T15:20:47.119Z,56.30
2019-02-11T15:23:15.793Z,56.30
2019-02-11T15:25:45.108Z,56.51
2019-02-11T15:28:13.998Z,56.51
2019-02-11T15:30:42.997Z,56.21
2019-02-11T15:33:11.662Z,57.21
2019-02-11T15:35:40.277Z,56.74
2019-02-11T15:38:08.908Z,57.69
2019-02-11T15:40:37.971Z,58.81
2019-02-11T15:43:06.958Z,58.22
2019-02-11T15:45:35.573Z,58.77
2019-02-11T15:48:04.612Z,58.63
2019-02-11T15:50:33.624Z,60.54
2019-02-11T15:53:02.915Z,61.19
2019-02-11T15:55:31.919Z,61.19
2019-02-11T15:58:01.104Z,62.19
2019-02-11T16:00:30.096Z,62.74
2019-02-11T16:02:59.400Z,62.74
2019-02-11T16:05:28.393Z,62.78
2019-02-11T16:07:57.149Z,63.39
2019-02-11T16:10:27.000Z,64.48
2019-02-11T16:12:55.993Z,65.72
2019-02-11T16:15:25.008Z,66.85
2019-02-11T16:17:53.666Z,68.71
2019-02-11T16:20:22.645Z,69.05
2019-02-11T16:22:51.344Z,69.39
2019-02-11T16:25:20.645Z,70.26
2019-02-11T16:27:49.732Z,70.93
2019-02-11T16:30:18.978Z,70.92
2019-02-11T16:32:47.778Z,71.05
2019-02-11T16:35:16.548Z,71.60
2019-02-11T16:37:45.651Z,71.20
2019-02-11T16:40:17.067Z,71.43
2019-02-11T16:42:45.697Z,71.11
2019-02-11T16:45:14.749Z,70.62
2019-02-11T16:47:43.740Z,70.44
2019-02-11T16:50:12.459Z,70.08
2019-02-11T16:52:41.425Z,70.39
2019-02-11T16:55:10.317Z,70.33
2019-02-11T16:57:39.616Z,71.05
2019-02-11T17:00:11.027Z,71.00
2019-02-11T17:02:39.954Z,71.26
2019-02-11T17:05:09.175Z,71.66
2019-02-11T17:07:41.986Z,72.19
2019-02-11T17:10:09.905Z,72.17
2019-02-11T17:12:38.610Z,72.19
2019-02-11T17:15:09.622Z,71.83
2019-02-11T17:17:38.266Z,71.76
2019-02-11T17:20:07.815Z,71.27
2019-02-11T17:22:36.556Z,71.03
2019-02-11T17:25:05.585Z,70.22
2019-02-11T17:27:34.504Z,70.48
2019-02-11T17:30:03.226Z,70.39
2019-02-11T17:32:32.183Z,70.16
2019-02-11T17:35:00.809Z,69.58
2019-02-11T17:37:29.758Z,69.57
2019-02-11T17:39:58.378Z,69.53
2019-02-11T17:42:27.344Z,69.54
2019-02-11T17:44:57.150Z,69.01
2019-02-11T17:47:26.321Z,68.90
2019-02-11T17:49:55.513Z,68.75
2019-02-11T17:52:24.659Z,68.16
2019-02-11T17:54:53.442Z,67.84
2019-02-11T17:57:22.488Z,67.11
2019-02-11T17:59:51.762Z,67.01
2019-02-11T18:02:21.009Z,67.16
2019-02-11T18:04:50.590Z,67.56
2019-02-11T18:07:19.428Z,68.40
2019-02-11T18:09:48.198Z,69.78
2019-02-11T18:12:17.311Z,71.04
2019-02-11T18:14:46.064Z,71.71
2019-02-11T18:17:14.854Z,72.66
2019-02-11T18:19:43.633Z,72.73
2019-02-11T18:22:12.515Z,72.86
2019-02-11T18:24:41.490Z,72.98
2019-02-11T18:27:11.066Z,72.75
2019-02-11T18:29:39.758Z,72.96
2019-02-11T18:32:08.816Z,72.95
2019-02-11T18:34:38.052Z,73.29
2019-02-11T18:37:07.006Z,73.54
2019-02-11T18:39:35.960Z,73.07
2019-02-11T18:42:05.033Z,72.96
2019-02-11T18:44:34.025Z,73.18
2019-02-11T18:47:02.940Z,73.54
2019-02-11T18:49:34.609Z,73.59
2019-02-11T18:52:02.477Z,73.16
2019-02-11T18:54:31.251Z,73.09
2019-02-11T18:57:00.291Z,72.85
2019-02-11T18:59:29.017Z,72.02
2019-02-11T19:01:58.095Z,72.11
2019-02-11T19:04:27.324Z,72.06
2019-02-11T19:06:56.263Z,71.48
2019-02-11T19:09:25.011Z,71.31
2019-02-11T19:11:54.087Z,71.42
2019-02-11T19:14:23.178Z,71.39
2019-02-11T19:16:52.825Z,71.22
2019-02-11T19:19:21.639Z,71.18
2019-02-11T19:21:50.589Z,71.18
2019-02-11T19:24:19.561Z,71.03
2019-02-11T19:26:48.456Z,71.08
2019-02-11T19:29:17.101Z,71.18
2019-02-11T19:31:46.330Z,71.37
2019-02-11T19:34:15.003Z,71.58
2019-02-11T19:36:44.091Z,71.34
2019-02-11T19:39:13.031Z,70.75
2019-02-11T19:41:43.085Z,70.29
2019-02-11T19:44:15.242Z,70.32
2019-02-11T19:46:44.202Z,70.48
2019-02-11T19:49:13.506Z,70.10
2019-02-11T19:51:42.483Z,69.81
2019-02-11T19:54:11.786Z,70.27
2019-02-11T19:56:40.791Z,69.36
2019-02-11T19:59:09.453Z,69.39
2019-02-11T20:01:38.699Z,69.13
2019-02-11T20:04:08.112Z,68.92
2019-02-11T20:06:37.275Z,69.30
2019-02-11T20:09:06.358Z,68.90
2019-02-11T20:11:37.865Z,69.44
2019-02-11T20:14:07.021Z,69.44
2019-02-11T20:16:35.947Z,69.25
2019-02-11T20:19:04.679Z,69.19
2019-02-11T20:21:33.617Z,69.28
2019-02-11T20:24:02.688Z,69.23
2019-02-11T20:26:31.409Z,69.29
2019-02-11T20:29:00.172Z,69.69
2019-02-11T20:31:29.055Z,70.36
2019-02-11T20:33:57.703Z,70.30
2019-02-11T20:36:26.631Z,70.72
2019-02-11T20:38:55.271Z,71.27
2019-02-11T20:41:24.211Z,71.80
2019-02-11T20:43:53.822Z,72.13
2019-02-11T20:46:23.013Z,72.40
2019-02-11T20:48:52.027Z,72.51
2019-02-11T20:51:20.999Z,73.20
2019-02-11T20:53:50.005Z,73.04
2019-02-11T20:56:18.888Z,73.23
2019-02-11T20:58:47.781Z,75.03
2019-02-11T21:01:16.413Z,72.82
2019-02-11T21:03:47.008Z,72.39
2019-02-11T21:06:16.603Z,72.57
2019-02-11T21:08:45.907Z,72.40
2019-02-11T21:11:14.893Z,72.85
2019-02-11T21:13:43.579Z,73.32
2019-02-11T21:16:12.573Z,73.41
2019-02-11T21:18:41.204Z,73.42
2019-02-11T21:21:09.888Z,73.73
2019-02-11T21:23:39.154Z,73.55
2019-02-11T21:26:08.809Z,73.41
2019-02-11T21:28:38.360Z,73.37
2019-02-11T21:31:07.766Z,73.17
2019-02-11T21:33:36.469Z,73.20
2019-02-11T21:36:05.438Z,73.50
2019-02-11T21:38:34.333Z,73.51
2019-02-11T21:41:03.942Z,73.40
2019-02-11T21:43:33.248Z,73.00
2019-02-11T21:46:02.160Z,73.06
2019-02-11T21:48:31.025Z,73.05
2019-02-11T21:50:59.915Z,73.00
2019-02-11T21:53:29.117Z,73.24
2019-02-11T21:55:58.010Z,73.15
2019-02-11T21:58:26.906Z,73.73
2019-02-11T22:01:02.103Z,74.13
2019-02-11T22:03:26.630Z,74.53
2019-02-11T22:05:55.517Z,74.61
2019-02-11T22:08:24.517Z,75.00
2019-02-11T22:10:53.519Z,75.32
2019-02-11T22:13:22.427Z,75.46
2019-02-11T22:15:51.395Z,76.29
2019-02-11T22:18:20.906Z,76.63
2019-02-11T22:20:50.116Z,76.82
2019-02-11T22:23:19.092Z,77.21
2019-02-11T22:25:48.113Z,77.57
2019-02-11T22:28:17.086Z,77.86
2019-02-11T22:30:45.729Z,78.03
2019-02-11T22:33:14.969Z,78.33
2019-02-11T22:35:44.271Z,78.68
2019-02-11T22:38:13.289Z,79.10
2019-02-11T22:40:42.072Z,79.17
2019-02-11T22:43:11.309Z,79.78
2019-02-11T22:45:41.404Z,79.69
2019-02-11T22:48:10.566Z,79.93
2019-02-11T22:50:43.155Z,80.11
2019-02-11T22:53:09.931Z,80.22
2019-02-11T22:55:38.864Z,80.33
2019-02-11T22:58:07.872Z,80.89
2019-02-11T23:00:51.613Z,80.88
2019-02-11T23:03:20.707Z,80.98
2019-02-11T23:05:49.328Z,80.67
2019-02-11T23:08:18.307Z,80.77
2019-02-11T23:10:47.070Z,80.65
2019-02-11T23:13:16.578Z,80.29
2019-02-11T23:15:45.884Z,80.21
2019-02-11T23:18:14.876Z,79.89
2019-02-11T23:20:51.487Z,79.79
2019-02-11T23:23:14.397Z,79.67
2019-02-11T23:25:43.390Z,79.62
2019-02-11T23:28:12.691Z,79.37
2019-02-11T23:30:41.660Z,79.24
2019-02-11T23:33:10.690Z,78.97
2019-02-11T23:35:39.408Z,79.20
2019-02-11T23:38:08.365Z,79.42
2019-02-11T23:40:37.972Z,79.67
2019-02-11T23:43:06.964Z,79.86
2019-02-11T23:45:35.700Z,79.99
2019-02-11T23:48:04.768Z,79.76
2019-02-11T23:50:33.639Z,80.01
2019-02-11T23:53:02.325Z,80.09
2019-02-11T23:55:31.306Z,80.12
2019-02-11T23:57:59.925Z,80.34
